MSC Alexa — 3FPP6 — position and weather

sailwx.info

Track history (hours):
 
Tides and Currents Weather Stations Pressure Air Temp Water Temp Dewpoint Dewpoint Depression Visibility Wind Speed Wind Dir Waves Ship Positions

MSC Alexa

Last reported at 2015-Aug-26 14:07 UTC. Time now 2015-Sep-03 17:13 UTC.
Position N 28°10' W 116°09'.
Warning: this ship's position is 8 days out of date.

Length 243 m; draft 9.2 m.

Type: Ship (hazmat cat A). MMSI: 356904000.

Date/timePositionNaut miles runAvg speedWind from/ knotsBaromVisibWave heightAir tempDewpointWater temp
2015-Aug-26 14:07N 28°10' W 116°09'1417.2
2015-Aug-26 13:19N 28°21' W 116°19'1417.5
2015-Aug-26 12:32N 28°32' W 116°29'16317.7
2015-Aug-26 03:19N 30°38' W 118°29'1617.6
2015-Aug-26 02:26N 30°50' W 118°40'1617.7
2015-Aug-26 01:33N 31°02' W 118°52'1817.8
2015-Aug-26 00:33N 31°17' W 119°03'1817.7
2015-Aug-25 23:34N 31°33' W 119°12'1717.3
2015-Aug-25 22:34N 31°48' W 119°22'1717.4
2015-Aug-25 21:33N 32°03' W 119°32'9317.9
2015-Aug-25 16:20N 33°25' W 120°25'1717.6
2015-Aug-25 15:22N 33°40' W 120°35'2017.8
2015-Aug-25 14:15N 33°58' W 120°46'1217.8
2015-Aug-25 13:33N 34°09' W 120°53'1817.9
2015-Aug-25 12:34N 34°24' W 121°03'1818.2
2015-Aug-25 11:34N 34°40' W 121°14'1818.1
2015-Aug-25 10:33N 34°56' W 121°24'1918.6
2015-Aug-25 09:34N 35°13' W 121°35'1918.6
2015-Aug-25 08:34N 35°29' W 121°46'1818.2
2015-Aug-25 07:34N 35°45' W 121°56'1818.0
2015-Aug-25 06:34N 36°01' W 122°07'1818.1
2015-Aug-25 05:33N 36°17' W 122°18'1918.6
2015-Aug-25 04:33N 36°34' W 122°26'1818.6
2015-Aug-25 03:34N 36°51' W 122°35'1818.1
2015-Aug-25 02:33N 37°08' W 122°43'1817.7
2015-Aug-25 01:34N 37°26' W 122°44'1717.4
2015-Aug-25 00:33N 37°43' W 122°42'1110.7
2015-Aug-24 23:34N 37°49' W 122°30'8 8.3
2015-Aug-24 22:34N 37°49' W 122°20'1 0.6
2015-Aug-24 21:33N 37°49' W 122°19'0 0.0
2015-Aug-24 20:32N 37°49' W 122°19'0 0.0
2015-Aug-24 19:32N 37°49' W 122°19'0 0.0
2015-Aug-24 18:32N 37°49' W 122°19'0 0.0
2015-Aug-24 17:31N 37°49' W 122°19'0 0.0
2015-Aug-24 16:31N 37°49' W 122°19'0 0.0
2015-Aug-24 15:33N 37°49' W 122°19'0 0.0
2015-Aug-24 14:33N 37°49' W 122°19'0 0.0
2015-Aug-24 13:32N 37°49' W 122°19'0 0.0
2015-Aug-24 12:32N 37°49' W 122°19'0 0.0
2015-Aug-24 11:32N 37°49' W 122°19'0 0.0
2015-Aug-24 10:31N 37°49' W 122°19'0 0.0
2015-Aug-24 09:31N 37°49' W 122°19'0 0.0
2015-Aug-24 08:33N 37°49' W 122°19'0 0.0
2015-Aug-24 07:33N 37°49' W 122°19'0 0.0
2015-Aug-24 06:32N 37°49' W 122°19'0 0.0
2015-Aug-24 05:32N 37°49' W 122°19'0 0.0
2015-Aug-24 04:31N 37°49' W 122°19'0 0.0
2015-Aug-24 03:31N 37°49' W 122°19'0 0.0
2015-Aug-24 02:31N 37°49' W 122°19'0 0.0
2015-Aug-24 01:33N 37°49' W 122°19'0 0.0
2015-Aug-24 00:33N 37°49' W 122°19'0 0.0
2015-Aug-23 23:32N 37°49' W 122°19'0 0.0
2015-Aug-23 22:32N 37°49' W 122°19'0 0.0
2015-Aug-23 21:31N 37°49' W 122°19'0 0.0
2015-Aug-23 20:31N 37°49' W 122°19'0 0.0
2015-Aug-23 19:31N 37°49' W 122°19'0 0.0
2015-Aug-23 18:33N 37°49' W 122°19'0 0.0
2015-Aug-23 17:33N 37°49' W 122°19'0 0.0
2015-Aug-23 16:32N 37°49' W 122°19'0 0.0
2015-Aug-23 15:32N 37°49' W 122°19'0 0.0
2015-Aug-23 14:31N 37°49' W 122°19'0 0.0
2015-Aug-23 13:31N 37°49' W 122°19'1 1.4
2015-Aug-23 12:33N 37°49' W 122°20'1212.0
2015-Aug-23 11:33N 37°47' W 122°35'1010.3
2015-Aug-23 10:33N 37°41' W 122°46'1312.7
2015-Aug-23 09:33N 37°34' W 122°59'1010.3
2015-Aug-23 08:33N 37°29' W 123°11'1 0.9
2015-Aug-23 07:33N 37°29' W 123°12'1 0.8
2015-Aug-23 06:33N 37°30' W 123°13'1 0.9
2015-Aug-23 05:33N 37°30' W 123°14'1 1.0
2015-Aug-23 04:33N 37°31' W 123°15'1 1.1
2015-Aug-23 03:33N 37°31' W 123°16'1 0.9
2015-Aug-23 02:32N 37°31' W 123°17'1 0.4
2015-Aug-22 23:29N 37°30' W 123°16'1 0.8
2015-Aug-22 22:22N 37°31' W 123°17'1 0.7
2015-Aug-22 20:33N 37°31' W 123°18'0 0.4
2015-Aug-22 19:33N 37°32' W 123°18'5 4.5
2015-Aug-22 18:24N 37°31' W 123°11'1 1.1
2015-Aug-22 17:33N 37°31' W 123°12'1 0.7
2015-Aug-22 16:15N 37°32' W 123°14'0 0.5
2015-Aug-22 15:33N 37°31' W 123°14'6 6.4
2015-Aug-22 14:33N 37°26' W 123°08'1 0.9
2015-Aug-22 13:33N 37°27' W 123°09'1 0.9
2015-Aug-22 12:33N 37°28' W 123°10'0 0.4
2015-Aug-22 11:33N 37°28' W 123°10'10 9.8
2015-Aug-22 10:32N 37°21' W 123°01'1817.7
2015-Aug-22 09:29N 37°04' W 122°51'1717.4
2015-Aug-22 08:32N 36°49' W 122°43'3417.1
2015-Aug-22 06:32N 36°18' W 122°25'1717.0
2015-Aug-22 05:32N 36°04' W 122°13'5716.7
2015-Aug-22 02:06N 35°17' W 121°34'1016.6
2015-Aug-22 01:30N 35°08' W 121°27'1616.6
2015-Aug-22 00:33N 34°55' W 121°16'1716.6
2015-Aug-21 23:33N 34°41' W 121°05'1717.1
2015-Aug-21 22:33N 34°28' W 120°53'7418.0
2015-Aug-21 18:25N 34°07' W 119°26'1718.1
2015-Aug-21 17:27N 34°01' W 119°07'1212.7
2015-Aug-21 16:28N 33°55' W 118°54'1111.5
2015-Aug-21 15:32N 33°49' W 118°43'1111.6
2015-Aug-21 14:33N 33°43' W 118°31'1111.1
2015-Aug-21 13:33N 33°38' W 118°19'8 7.6
2015-Aug-21 12:33N 33°42' W 118°11'4 4.0
2015-Aug-21 11:34N 33°45' W 118°14'0 0.0
2015-Aug-21 10:34N 33°45' W 118°14'0 0.0
2015-Aug-21 09:33N 33°45' W 118°14'0 0.0
2015-Aug-21 08:33N 33°45' W 118°14'0 0.0
2015-Aug-21 07:34N 33°45' W 118°14'0 0.0
2015-Aug-21 06:33N 33°45' W 118°14'0 0.0
2015-Aug-21 05:34N 33°45' W 118°14'0 0.0
2015-Aug-21 04:34N 33°45' W 118°14'0 0.0
2015-Aug-21 03:34N 33°45' W 118°14'0 0.1
2015-Aug-21 02:34N 33°45' W 118°14'0 0.0
2015-Aug-21 01:34N 33°45' W 118°14'0 0.0
2015-Aug-21 00:34N 33°45' W 118°14'0 0.0
2015-Aug-20 23:34N 33°45' W 118°14'0 0.0
2015-Aug-20 22:34N 33°45' W 118°14'0 0.0
2015-Aug-20 21:33N 33°45' W 118°14'0 0.0
2015-Aug-20 20:33N 33°45' W 118°14'0 0.0
2015-Aug-20 19:34N 33°45' W 118°14'0 0.0
2015-Aug-20 18:33N 33°45' W 118°14'0 0.0
2015-Aug-20 17:34N 33°45' W 118°14'0 0.0
2015-Aug-20 16:34N 33°45' W 118°14'0 0.0
2015-Aug-20 15:33N 33°45' W 118°14'0 0.0
2015-Aug-20 14:33N 33°45' W 118°14'0 0.0
2015-Aug-20 13:33N 33°45' W 118°14'0 0.0
2015-Aug-20 12:33N 33°45' W 118°14'0 0.2
2015-Aug-20 11:34N 33°45' W 118°14'7 7.0
2015-Aug-20 10:34N 33°39' W 118°10'6 6.1
2015-Aug-20 09:33N 33°33' W 118°09'5 5.0
2015-Aug-20 08:33N 33°28' W 118°06'7 6.6
2015-Aug-20 07:33N 33°22' W 118°04'9 9.3
2015-Aug-20 06:33N 33°13' W 118°00'10 9.6
2015-Aug-20 05:33N 33°04' W 117°57'1010.5
2015-Aug-20 04:34N 32°54' W 117°53'1312.6
2015-Aug-20 03:34N 32°42' W 117°48'1212.3
2015-Aug-20 02:33N 32°30' W 117°44'1212.4
2015-Aug-20 01:33N 32°19' W 117°39'1312.7
2015-Aug-20 00:33N 32°07' W 117°34'3015.0
2015-Aug-19 22:33N 31°38' W 117°23'1615.7
2015-Aug-19 21:32N 31°23' W 117°17'1515.6
2015-Aug-19 20:34N 31°09' W 117°12'3715.3
2015-Aug-19 18:07N 30°33' W 116°58'1015.5
2015-Aug-19 17:27N 30°23' W 116°54'1315.2
2015-Aug-19 16:34N 30°11' W 116°49'1414.0
2015-Aug-19 15:33N 29°57' W 116°44'1413.7
2015-Aug-19 14:30N 29°43' W 116°39'3214.0
2015-Aug-19 12:12N 29°13' W 116°27'1014.9
2015-Aug-19 11:33N 29°03' W 116°24'1514.7
2015-Aug-19 10:32N 28°49' W 116°18'1814.7
2015-Aug-19 09:20N 28°33' W 116°11'  
Track history (hours):
 
Tides and Currents Weather Stations Pressure Air Temp Water Temp Dewpoint Dewpoint Depression Visibility Wind Speed Wind Dir Waves Ship Positions

MSC Alexa

Last reported at 2015-Aug-26 14:07 UTC. Time now 2015-Sep-03 17:13 UTC.
Position N 28°10' W 116°09'.
Warning: this ship's position is 8 days out of date.

Length 243 m; draft 9.2 m.

Type: Ship (hazmat cat A). MMSI: 356904000.

Date/timePositionNaut miles runAvg speedWind from/ knotsBaromVisibWave heightAir tempDewpointWater temp
2015-Aug-26 14:07N 28°10' W 116°09'1417.2
2015-Aug-26 13:19N 28°21' W 116°19'1417.5
2015-Aug-26 12:32N 28°32' W 116°29'16317.7
2015-Aug-26 03:19N 30°38' W 118°29'1617.6
2015-Aug-26 02:26N 30°50' W 118°40'1617.7
2015-Aug-26 01:33N 31°02' W 118°52'1817.8
2015-Aug-26 00:33N 31°17' W 119°03'1817.7
2015-Aug-25 23:34N 31°33' W 119°12'1717.3
2015-Aug-25 22:34N 31°48' W 119°22'1717.4
2015-Aug-25 21:33N 32°03' W 119°32'9317.9
2015-Aug-25 16:20N 33°25' W 120°25'1717.6
2015-Aug-25 15:22N 33°40' W 120°35'2017.8
2015-Aug-25 14:15N 33°58' W 120°46'1217.8
2015-Aug-25 13:33N 34°09' W 120°53'1817.9
2015-Aug-25 12:34N 34°24' W 121°03'1818.2
2015-Aug-25 11:34N 34°40' W 121°14'1818.1
2015-Aug-25 10:33N 34°56' W 121°24'1918.6
2015-Aug-25 09:34N 35°13' W 121°35'1918.6
2015-Aug-25 08:34N 35°29' W 121°46'1818.2
2015-Aug-25 07:34N 35°45' W 121°56'1818.0
2015-Aug-25 06:34N 36°01' W 122°07'1818.1
2015-Aug-25 05:33N 36°17' W 122°18'1918.6
2015-Aug-25 04:33N 36°34' W 122°26'1818.6
2015-Aug-25 03:34N 36°51' W 122°35'1818.1
2015-Aug-25 02:33N 37°08' W 122°43'1817.7
2015-Aug-25 01:34N 37°26' W 122°44'1717.4
2015-Aug-25 00:33N 37°43' W 122°42'1110.7
2015-Aug-24 23:34N 37°49' W 122°30'8 8.3
2015-Aug-24 22:34N 37°49' W 122°20'1 0.6
2015-Aug-24 21:33N 37°49' W 122°19'0 0.0
2015-Aug-24 20:32N 37°49' W 122°19'0 0.0
2015-Aug-24 19:32N 37°49' W 122°19'0 0.0
2015-Aug-24 18:32N 37°49' W 122°19'0 0.0
2015-Aug-24 17:31N 37°49' W 122°19'0 0.0
2015-Aug-24 16:31N 37°49' W 122°19'0 0.0
2015-Aug-24 15:33N 37°49' W 122°19'0 0.0
2015-Aug-24 14:33N 37°49' W 122°19'0 0.0
2015-Aug-24 13:32N 37°49' W 122°19'0 0.0
2015-Aug-24 12:32N 37°49' W 122°19'0 0.0
2015-Aug-24 11:32N 37°49' W 122°19'0 0.0
2015-Aug-24 10:31N 37°49' W 122°19'0 0.0
2015-Aug-24 09:31N 37°49' W 122°19'0 0.0
2015-Aug-24 08:33N 37°49' W 122°19'0 0.0
2015-Aug-24 07:33N 37°49' W 122°19'0 0.0
2015-Aug-24 06:32N 37°49' W 122°19'0 0.0
2015-Aug-24 05:32N 37°49' W 122°19'0 0.0
2015-Aug-24 04:31N 37°49' W 122°19'0 0.0
2015-Aug-24 03:31N 37°49' W 122°19'0 0.0
2015-Aug-24 02:31N 37°49' W 122°19'0 0.0
2015-Aug-24 01:33N 37°49' W 122°19'0 0.0
2015-Aug-24 00:33N 37°49' W 122°19'0 0.0
2015-Aug-23 23:32N 37°49' W 122°19'0 0.0
2015-Aug-23 22:32N 37°49' W 122°19'0 0.0
2015-Aug-23 21:31N 37°49' W 122°19'0 0.0
2015-Aug-23 20:31N 37°49' W 122°19'0 0.0
2015-Aug-23 19:31N 37°49' W 122°19'0 0.0
2015-Aug-23 18:33N 37°49' W 122°19'0 0.0
2015-Aug-23 17:33N 37°49' W 122°19'0 0.0
2015-Aug-23 16:32N 37°49' W 122°19'0 0.0
2015-Aug-23 15:32N 37°49' W 122°19'0 0.0
2015-Aug-23 14:31N 37°49' W 122°19'0 0.0
2015-Aug-23 13:31N 37°49' W 122°19'1 1.4
2015-Aug-23 12:33N 37°49' W 122°20'1212.0
2015-Aug-23 11:33N 37°47' W 122°35'1010.3
2015-Aug-23 10:33N 37°41' W 122°46'1312.7
2015-Aug-23 09:33N 37°34' W 122°59'1010.3
2015-Aug-23 08:33N 37°29' W 123°11'1 0.9
2015-Aug-23 07:33N 37°29' W 123°12'1 0.8
2015-Aug-23 06:33N 37°30' W 123°13'1 0.9
2015-Aug-23 05:33N 37°30' W 123°14'1 1.0
2015-Aug-23 04:33N 37°31' W 123°15'1 1.1
2015-Aug-23 03:33N 37°31' W 123°16'1 0.9
2015-Aug-23 02:32N 37°31' W 123°17'1 0.4
2015-Aug-22 23:29N 37°30' W 123°16'1 0.8
2015-Aug-22 22:22N 37°31' W 123°17'1 0.7
2015-Aug-22 20:33N 37°31' W 123°18'0 0.4
2015-Aug-22 19:33N 37°32' W 123°18'5 4.5
2015-Aug-22 18:24N 37°31' W 123°11'1 1.1
2015-Aug-22 17:33N 37°31' W 123°12'1 0.7
2015-Aug-22 16:15N 37°32' W 123°14'0 0.5
2015-Aug-22 15:33N 37°31' W 123°14'6 6.4
2015-Aug-22 14:33N 37°26' W 123°08'1 0.9
2015-Aug-22 13:33N 37°27' W 123°09'1 0.9
2015-Aug-22 12:33N 37°28' W 123°10'0 0.4
2015-Aug-22 11:33N 37°28' W 123°10'10 9.8
2015-Aug-22 10:32N 37°21' W 123°01'1817.7
2015-Aug-22 09:29N 37°04' W 122°51'1717.4
2015-Aug-22 08:32N 36°49' W 122°43'3417.1
2015-Aug-22 06:32N 36°18' W 122°25'1717.0
2015-Aug-22 05:32N 36°04' W 122°13'5716.7
2015-Aug-22 02:06N 35°17' W 121°34'1016.6
2015-Aug-22 01:30N 35°08' W 121°27'1616.6
2015-Aug-22 00:33N 34°55' W 121°16'1716.6
2015-Aug-21 23:33N 34°41' W 121°05'1717.1
2015-Aug-21 22:33N 34°28' W 120°53'7418.0
2015-Aug-21 18:25N 34°07' W 119°26'1718.1
2015-Aug-21 17:27N 34°01' W 119°07'1212.7
2015-Aug-21 16:28N 33°55' W 118°54'1111.5
2015-Aug-21 15:32N 33°49' W 118°43'1111.6
2015-Aug-21 14:33N 33°43' W 118°31'1111.1
2015-Aug-21 13:33N 33°38' W 118°19'8 7.6
2015-Aug-21 12:33N 33°42' W 118°11'4 4.0
2015-Aug-21 11:34N 33°45' W 118°14'0 0.0
2015-Aug-21 10:34N 33°45' W 118°14'0 0.0
2015-Aug-21 09:33N 33°45' W 118°14'0 0.0
2015-Aug-21 08:33N 33°45' W 118°14'0 0.0
2015-Aug-21 07:34N 33°45' W 118°14'0 0.0
2015-Aug-21 06:33N 33°45' W 118°14'0 0.0
2015-Aug-21 05:34N 33°45' W 118°14'0 0.0
2015-Aug-21 04:34N 33°45' W 118°14'0 0.0
2015-Aug-21 03:34N 33°45' W 118°14'0 0.1
2015-Aug-21 02:34N 33°45' W 118°14'0 0.0
2015-Aug-21 01:34N 33°45' W 118°14'0 0.0
2015-Aug-21 00:34N 33°45' W 118°14'0 0.0
2015-Aug-20 23:34N 33°45' W 118°14'0 0.0
2015-Aug-20 22:34N 33°45' W 118°14'0 0.0
2015-Aug-20 21:33N 33°45' W 118°14'0 0.0
2015-Aug-20 20:33N 33°45' W 118°14'0 0.0
2015-Aug-20 19:34N 33°45' W 118°14'0 0.0
2015-Aug-20 18:33N 33°45' W 118°14'0 0.0
2015-Aug-20 17:34N 33°45' W 118°14'0 0.0
2015-Aug-20 16:34N 33°45' W 118°14'0 0.0
2015-Aug-20 15:33N 33°45' W 118°14'0 0.0
2015-Aug-20 14:33N 33°45' W 118°14'0 0.0
2015-Aug-20 13:33N 33°45' W 118°14'0 0.0
2015-Aug-20 12:33N 33°45' W 118°14'0 0.2
2015-Aug-20 11:34N 33°45' W 118°14'7 7.0
2015-Aug-20 10:34N 33°39' W 118°10'6 6.1
2015-Aug-20 09:33N 33°33' W 118°09'5 5.0
2015-Aug-20 08:33N 33°28' W 118°06'7 6.6
2015-Aug-20 07:33N 33°22' W 118°04'9 9.3
2015-Aug-20 06:33N 33°13' W 118°00'10 9.6
2015-Aug-20 05:33N 33°04' W 117°57'1010.5
2015-Aug-20 04:34N 32°54' W 117°53'1312.6
2015-Aug-20 03:34N 32°42' W 117°48'1212.3
2015-Aug-20 02:33N 32°30' W 117°44'1212.4
2015-Aug-20 01:33N 32°19' W 117°39'1312.7
2015-Aug-20 00:33N 32°07' W 117°34'3015.0
2015-Aug-19 22:33N 31°38' W 117°23'1615.7
2015-Aug-19 21:32N 31°23' W 117°17'1515.6
2015-Aug-19 20:34N 31°09' W 117°12'3715.3
2015-Aug-19 18:07N 30°33' W 116°58'1015.5
2015-Aug-19 17:27N 30°23' W 116°54'1315.2
2015-Aug-19 16:34N 30°11' W 116°49'1414.0
2015-Aug-19 15:33N 29°57' W 116°44'1413.7
2015-Aug-19 14:30N 29°43' W 116°39'3214.0
2015-Aug-19 12:12N 29°13' W 116°27'1014.9
2015-Aug-19 11:33N 29°03' W 116°24'1514.7
2015-Aug-19 10:32N 28°49' W 116°18'1814.7
2015-Aug-19 09:20N 28°33' W 116°11'  

Dump ship's entire track history